createdAt,value
2023-02-17T00:01:53.740Z,78.60
2023-02-17T00:04:22.767Z,79.20
2023-02-17T00:06:51.465Z,86.10
2023-02-17T00:09:20.141Z,83.80
2023-02-17T00:11:52.726Z,72.60
2023-02-17T00:14:21.483Z,78.50
2023-02-17T00:16:51.008Z,82.40
2023-02-17T00:19:26.030Z,77.10
2023-02-17T00:21:56.852Z,82.40
2023-02-17T00:24:27.285Z,82.60
2023-02-17T00:26:58.777Z,88.50
2023-02-17T00:29:28.858Z,76.50
2023-02-17T00:31:58.117Z,67.10
2023-02-17T00:34:30.291Z,75.60
2023-02-17T00:36:59.069Z,83.40
2023-02-17T00:39:31.979Z,85.00
2023-02-17T00:42:01.045Z,80.20
2023-02-17T00:44:31.707Z,88.20
2023-02-17T00:47:00.845Z,78.40
2023-02-17T00:49:29.619Z,74.10
2023-02-17T00:52:01.486Z,84.40
2023-02-17T00:54:30.802Z,85.50
2023-02-17T00:56:59.669Z,76.20
2023-02-17T00:59:28.560Z,79.40
2023-02-17T01:01:57.411Z,71.20
2023-02-17T01:04:26.258Z,78.30
2023-02-17T01:06:55.261Z,74.00
2023-02-17T01:09:25.805Z,69.80
2023-02-17T01:11:54.724Z,76.00
2023-02-17T01:14:23.764Z,86.40
2023-02-17T01:16:55.601Z,77.60
2023-02-17T01:19:27.056Z,84.00
2023-02-17T01:21:55.930Z,80.00
2023-02-17T01:24:25.060Z,77.60
2023-02-17T01:26:53.812Z,77.50
2023-02-17T01:29:22.839Z,85.50
2023-02-17T01:31:51.765Z,80.00
2023-02-17T01:34:20.426Z,82.50
2023-02-17T01:36:50.228Z,82.80
2023-02-17T01:39:20.757Z,75.90
2023-02-17T01:41:53.689Z,71.90
2023-02-17T01:44:25.590Z,78.00
2023-02-17T01:46:56.115Z,77.00
2023-02-17T01:49:36.753Z,75.90
2023-02-17T01:52:11.757Z,92.00
2023-02-17T01:54:45.843Z,75.70
2023-02-17T01:57:23.426Z,85.90
2023-02-17T01:59:55.713Z,73.50
2023-02-17T02:02:25.243Z,89.50
2023-02-17T02:04:56.901Z,80.60
2023-02-17T02:07:30.594Z,76.80
2023-02-17T02:10:00.403Z,80.50
2023-02-17T02:12:35.062Z,74.10
2023-02-17T02:15:11.430Z,82.20
2023-02-17T02:17:52.484Z,85.10
2023-02-17T02:20:37.455Z,76.60
2023-02-17T02:23:26.514Z,84.10
2023-02-17T02:26:19.485Z,84.90
2023-02-17T02:29:14.157Z,79.00
2023-02-17T02:31:59.947Z,75.80
2023-02-17T02:34:39.276Z,74.10
2023-02-17T02:37:15.186Z,76.50
2023-02-17T02:39:49.852Z,78.90
2023-02-17T02:42:23.908Z,76.60
2023-02-17T02:44:52.873Z,68.00
2023-02-17T02:47:46.063Z,78.20
2023-02-17T02:50:21.453Z,71.40
2023-02-17T02:53:24.508Z,73.10
2023-02-17T02:56:01.268Z,70.70
2023-02-17T02:58:38.449Z,79.50
2023-02-17T03:01:13.827Z,71.00
2023-02-17T03:03:56.648Z,77.50
2023-02-17T03:06:31.598Z,72.10
2023-02-17T03:09:06.996Z,75.20
2023-02-17T03:11:36.243Z,75.30
2023-02-17T03:14:11.703Z,68.70
2023-02-17T03:16:42.632Z,74.30
2023-02-17T03:19:16.185Z,68.40
2023-02-17T03:21:52.879Z,77.80
2023-02-17T03:24:21.905Z,79.20
2023-02-17T03:26:54.243Z,76.20
2023-02-17T03:29:23.802Z,80.00
2023-02-17T03:31:52.941Z,79.60
2023-02-17T03:34:23.568Z,71.90
2023-02-17T03:36:52.423Z,75.40
2023-02-17T03:39:21.607Z,74.60
2023-02-17T03:41:51.959Z,72.60
2023-02-17T03:44:20.976Z,77.20
2023-02-17T03:46:55.750Z,75.30
2023-02-17T03:49:25.041Z,68.90
2023-02-17T03:51:53.641Z,78.30
2023-02-17T03:54:22.425Z,76.10
2023-02-17T03:56:51.236Z,71.60
2023-02-17T03:59:22.591Z,74.50
2023-02-17T04:01:51.840Z,65.90
2023-02-17T04:04:20.936Z,84.40
2023-02-17T04:06:52.836Z,71.30
2023-02-17T04:09:22.044Z,77.00
2023-02-17T04:11:53.699Z,74.00
2023-02-17T04:14:26.706Z,64.20
2023-02-17T04:16:56.271Z,64.70
2023-02-17T04:19:26.222Z,78.20
2023-02-17T04:21:54.913Z,75.00
2023-02-17T04:24:24.168Z,77.00
2023-02-17T04:26:57.174Z,81.60
2023-02-17T04:29:27.291Z,68.00
2023-02-17T04:31:56.415Z,79.90
2023-02-17T04:34:25.661Z,75.50
2023-02-17T04:36:55.112Z,77.10
2023-02-17T04:39:26.900Z,75.40
2023-02-17T04:41:57.399Z,74.70
2023-02-17T04:44:28.920Z,76.40
2023-02-17T04:47:04.065Z,75.20
2023-02-17T04:49:36.573Z,73.90
2023-02-17T04:52:06.693Z,69.30
2023-02-17T04:54:38.100Z,79.50
2023-02-17T04:57:09.697Z,73.40
2023-02-17T04:59:41.155Z,78.00
2023-02-17T05:02:10.117Z,75.80
2023-02-17T05:04:43.021Z,77.70
2023-02-17T05:07:13.193Z,73.40
2023-02-17T05:09:45.871Z,80.70
2023-02-17T05:12:16.271Z,71.50
2023-02-17T05:14:45.846Z,75.40
2023-02-17T05:17:18.539Z,72.30
2023-02-17T05:19:52.435Z,78.80
2023-02-17T05:22:22.056Z,73.00
2023-02-17T05:24:52.530Z,71.60
2023-02-17T05:27:21.535Z,76.50
2023-02-17T05:29:52.999Z,75.90
2023-02-17T05:32:26.517Z,74.00
2023-02-17T05:34:57.808Z,76.90
2023-02-17T05:37:29.561Z,81.40
2023-02-17T05:39:58.551Z,86.40
2023-02-17T05:42:35.930Z,78.90
2023-02-17T05:45:05.359Z,82.00
2023-02-17T05:47:35.935Z,78.60
2023-02-17T05:50:06.999Z,69.10
2023-02-17T05:52:40.861Z,68.00
2023-02-17T05:55:28.337Z,73.00
2023-02-17T05:57:59.555Z,73.30
2023-02-17T06:00:32.112Z,76.00
2023-02-17T06:03:00.839Z,73.90
2023-02-17T06:05:30.173Z,76.30
2023-02-17T06:07:58.972Z,74.20
2023-02-17T06:10:27.855Z,78.60
2023-02-17T06:13:00.540Z,70.40
2023-02-17T06:15:30.508Z,73.90
2023-02-17T06:17:59.448Z,72.20
2023-02-17T06:20:30.965Z,75.80
2023-02-17T06:23:03.339Z,71.80
2023-02-17T06:25:32.878Z,72.50
2023-02-17T06:28:01.710Z,70.10
2023-02-17T06:30:30.642Z,67.90
2023-02-17T06:32:59.467Z,83.50
2023-02-17T06:35:29.217Z,77.70
2023-02-17T06:37:58.236Z,76.20
2023-02-17T06:40:28.789Z,74.60
2023-02-17T06:43:00.424Z,66.70
2023-02-17T06:45:29.222Z,71.10
2023-02-17T06:47:58.088Z,76.40
2023-02-17T06:50:26.951Z,73.00
2023-02-17T06:52:56.859Z,76.60
2023-02-17T06:55:25.553Z,76.90
2023-02-17T06:57:54.497Z,70.50
2023-02-17T07:00:23.739Z,77.00
2023-02-17T07:02:52.530Z,70.70
2023-02-17T07:05:23.227Z,74.40
2023-02-17T07:07:56.845Z,82.80
2023-02-17T07:10:25.834Z,65.50
2023-02-17T07:12:54.546Z,67.40
2023-02-17T07:15:29.141Z,71.70
2023-02-17T07:17:59.480Z,64.90
2023-02-17T07:20:28.172Z,61.70
2023-02-17T07:22:57.142Z,76.10
2023-02-17T07:25:25.896Z,74.10
2023-02-17T07:27:57.102Z,70.00
2023-02-17T07:30:25.828Z,82.90
2023-02-17T07:32:54.571Z,85.10
2023-02-17T07:35:24.103Z,72.30
2023-02-17T07:37:52.966Z,73.00
2023-02-17T07:40:23.929Z,94.30
2023-02-17T07:42:53.170Z,105.80
2023-02-17T07:45:21.869Z,64.30
2023-02-17T07:47:52.232Z,72.50
2023-02-17T07:50:24.727Z,59.80
2023-02-17T07:52:53.392Z,58.90
2023-02-17T07:55:23.697Z,70.50
2023-02-17T07:57:52.387Z,67.20
2023-02-17T08:00:21.792Z,60.60
2023-02-17T08:02:51.627Z,55.60
2023-02-17T08:05:20.350Z,61.10
2023-02-17T08:08:12.077Z,61.10
2023-02-17T08:10:59.357Z,63.10
2023-02-17T08:13:28.812Z,60.60
2023-02-17T08:15:58.888Z,58.60
2023-02-17T08:18:29.099Z,62.60
2023-02-17T08:20:59.535Z,62.00
2023-02-17T08:23:29.844Z,61.50
2023-02-17T08:25:59.119Z,62.00
2023-02-17T08:28:29.522Z,57.00
2023-02-17T08:30:58.424Z,51.90
2023-02-17T08:33:27.240Z,58.50
2023-02-17T08:35:57.418Z,52.60
2023-02-17T08:38:29.214Z,57.60
2023-02-17T08:40:57.937Z,62.20
2023-02-17T08:43:26.805Z,54.80
2023-02-17T08:45:55.591Z,64.70
2023-02-17T08:48:27.000Z,57.90
2023-02-17T08:50:55.685Z,61.70
2023-02-17T08:53:26.814Z,60.10
2023-02-17T08:55:58.993Z,59.90
2023-02-17T08:58:28.039Z,51.00
2023-02-17T09:00:56.856Z,54.90
2023-02-17T09:03:26.179Z,50.70
2023-02-17T09:05:56.062Z,60.60
2023-02-17T09:08:25.965Z,69.50
2023-02-17T09:10:54.865Z,56.50
2023-02-17T09:13:26.232Z,57.60
2023-02-17T09:15:55.872Z,54.10
2023-02-17T09:18:27.852Z,66.70
2023-02-17T09:20:57.991Z,64.40
2023-02-17T09:23:27.325Z,51.10
2023-02-17T09:26:07.549Z,53.50
2023-02-17T09:28:39.927Z,59.00
2023-02-17T09:31:13.555Z,57.30
2023-02-17T09:33:43.583Z,61.40
2023-02-17T09:36:14.825Z,58.80
2023-02-17T09:38:50.441Z,54.30
2023-02-17T09:41:25.367Z,53.70
2023-02-17T09:43:55.855Z,56.30
2023-02-17T09:46:31.109Z,44.80
2023-02-17T09:49:07.843Z,59.30
2023-02-17T09:51:42.753Z,60.70
2023-02-17T09:54:22.599Z,56.40
2023-02-17T09:56:53.899Z,51.10
2023-02-17T09:59:32.645Z,54.70
2023-02-17T10:02:06.443Z,53.00
2023-02-17T10:04:41.984Z,45.90
2023-02-17T10:07:17.705Z,60.90
2023-02-17T10:10:02.759Z,49.40
2023-02-17T10:12:40.693Z,58.60
2023-02-17T10:15:17.793Z,53.40
2023-02-17T10:17:58.219Z,52.50
2023-02-17T10:20:33.625Z,53.00
2023-02-17T10:23:08.275Z,49.40
2023-02-17T10:26:12.349Z,61.50
2023-02-17T10:28:53.191Z,53.50
2023-02-17T10:31:32.198Z,59.70
2023-02-17T10:34:12.568Z,60.00
2023-02-17T10:36:54.029Z,57.50
2023-02-17T10:39:38.275Z,54.30
2023-02-17T10:42:14.553Z,56.40
2023-02-17T10:44:45.388Z,57.40
2023-02-17T10:47:15.633Z,56.80
2023-02-17T10:49:56.172Z,59.80
2023-02-17T10:52:37.088Z,53.80
2023-02-17T10:55:22.833Z,60.70
2023-02-17T10:57:59.006Z,61.90
2023-02-17T11:00:28.220Z,60.80
2023-02-17T11:02:57.228Z,55.10
2023-02-17T11:05:28.477Z,60.00
2023-02-17T11:08:00.509Z,58.70
2023-02-17T11:10:35.006Z,62.00
2023-02-17T11:13:19.407Z,55.60
2023-02-17T11:15:51.233Z,63.60
2023-02-17T11:18:26.487Z,62.00
2023-02-17T11:21:03.261Z,67.80
2023-02-17T11:23:33.175Z,61.30
2023-02-17T11:26:10.367Z,56.70
2023-02-17T11:28:39.460Z,55.00
2023-02-17T11:31:25.402Z,52.20
2023-02-17T11:33:56.775Z,52.50
2023-02-17T11:36:32.273Z,54.00
2023-02-17T11:39:18.484Z,53.50
2023-02-17T11:41:47.762Z,51.40
2023-02-17T11:44:26.275Z,54.70
2023-02-17T11:47:07.125Z,50.80
2023-02-17T11:49:53.158Z,53.90
2023-02-17T11:52:47.032Z,51.20
2023-02-17T11:55:23.453Z,51.30
2023-02-17T11:58:17.286Z,53.10
2023-02-17T12:00:58.280Z,58.60
2023-02-17T12:04:03.034Z,48.70
2023-02-17T12:06:44.417Z,58.00
2023-02-17T12:09:25.133Z,46.50
2023-02-17T12:12:01.357Z,56.00
2023-02-17T12:14:53.993Z,52.40
2023-02-17T12:17:34.794Z,51.10
2023-02-17T12:20:20.869Z,45.40
2023-02-17T12:23:04.073Z,47.40
2023-02-17T12:25:37.728Z,45.90
2023-02-17T12:28:32.128Z,51.50
2023-02-17T12:31:12.001Z,50.30
2023-02-17T12:33:56.648Z,42.90
2023-02-17T12:36:30.635Z,47.90
2023-02-17T12:39:09.200Z,46.10
2023-02-17T12:41:41.378Z,49.80
2023-02-17T12:44:17.790Z,50.60
2023-02-17T12:46:50.781Z,39.20
2023-02-17T12:49:27.349Z,46.10
2023-02-17T12:52:01.691Z,38.30
2023-02-17T12:54:36.789Z,43.10
2023-02-17T12:57:22.701Z,42.90
2023-02-17T12:59:56.870Z,39.90
2023-02-17T13:02:26.822Z,35.00
2023-02-17T13:05:02.014Z,35.30
2023-02-17T13:07:50.786Z,37.80
2023-02-17T13:10:28.580Z,31.60
2023-02-17T13:13:01.827Z,36.00
2023-02-17T13:15:36.441Z,36.60
2023-02-17T13:18:07.564Z,34.90
2023-02-17T13:20:45.296Z,35.40
2023-02-17T13:23:38.347Z,33.30
2023-02-17T13:26:34.103Z,36.20
2023-02-17T13:29:18.427Z,34.00
2023-02-17T13:31:53.394Z,31.30
2023-02-17T13:34:32.556Z,36.40
2023-02-17T13:37:14.447Z,37.40
2023-02-17T13:39:43.754Z,34.80
2023-02-17T13:42:43.598Z,34.60
2023-02-17T13:45:18.073Z,31.70
2023-02-17T13:47:50.234Z,32.60
2023-02-17T13:50:31.777Z,35.10
2023-02-17T13:53:02.304Z,37.40
2023-02-17T13:55:34.225Z,35.30
2023-02-17T13:58:03.357Z,36.00
2023-02-17T14:00:33.005Z,31.00
2023-02-17T14:03:19.031Z,35.90
2023-02-17T14:05:50.630Z,32.70
2023-02-17T14:08:28.082Z,31.00
2023-02-17T14:10:57.480Z,33.00
2023-02-17T14:13:26.739Z,37.50
2023-02-17T14:15:58.091Z,33.50
2023-02-17T14:18:31.944Z,34.00
2023-02-17T14:21:07.660Z,30.90
2023-02-17T14:23:45.811Z,32.00
2023-02-17T14:26:26.146Z,31.20
2023-02-17T14:28:56.887Z,28.40
2023-02-17T14:31:25.797Z,34.20
2023-02-17T14:33:58.051Z,42.10
2023-02-17T14:36:33.037Z,28.90
2023-02-17T14:39:04.543Z,31.60
2023-02-17T14:41:34.285Z,30.80
2023-02-17T14:44:03.189Z,34.10
2023-02-17T14:46:35.459Z,33.30
2023-02-17T14:49:05.237Z,35.50
2023-02-17T14:51:36.049Z,31.80
2023-02-17T14:54:11.531Z,38.10
2023-02-17T14:56:44.866Z,40.10
2023-02-17T14:59:14.001Z,56.00
2023-02-17T15:01:42.861Z,46.00
2023-02-17T15:04:11.535Z,37.70
2023-02-17T15:06:43.099Z,39.10
2023-02-17T15:09:15.711Z,53.30
2023-02-17T15:11:45.882Z,42.30
2023-02-17T15:14:17.177Z,43.30
2023-02-17T15:16:47.104Z,36.50
2023-02-17T15:19:17.467Z,39.70
2023-02-17T15:21:53.068Z,42.70
2023-02-17T15:24:33.231Z,34.10
2023-02-17T15:27:05.016Z,37.20
2023-02-17T15:29:34.922Z,42.60
2023-02-17T15:32:12.384Z,45.70
2023-02-17T15:34:41.246Z,67.40
2023-02-17T15:37:14.152Z,55.80
2023-02-17T15:39:46.039Z,49.40
2023-02-17T15:42:15.515Z,44.10
2023-02-17T15:44:52.015Z,40.40
2023-02-17T15:47:21.463Z,34.80
2023-02-17T15:49:55.043Z,34.90
2023-02-17T15:52:24.365Z,37.10
2023-02-17T15:55:04.054Z,34.70
2023-02-17T15:57:37.530Z,29.50
2023-02-17T16:00:15.478Z,28.90
2023-02-17T16:02:45.419Z,26.70
2023-02-17T16:05:16.706Z,31.20
2023-02-17T16:07:45.555Z,25.90
2023-02-17T16:10:17.577Z,37.60
2023-02-17T16:12:48.777Z,36.40
2023-02-17T16:15:21.461Z,29.40
2023-02-17T16:17:51.644Z,29.00
2023-02-17T16:20:23.216Z,24.20
2023-02-17T16:22:53.089Z,25.70
2023-02-17T16:25:22.958Z,24.20
2023-02-17T16:27:53.579Z,27.80
2023-02-17T16:30:24.925Z,19.90
2023-02-17T16:32:53.901Z,25.70
2023-02-17T16:35:25.877Z,23.40
2023-02-17T16:37:56.661Z,21.50
2023-02-17T16:40:29.294Z,26.00
2023-02-17T16:42:58.240Z,25.80
2023-02-17T16:45:32.647Z,21.90
2023-02-17T16:48:02.766Z,27.80
2023-02-17T16:50:36.239Z,30.00
2023-02-17T16:53:08.795Z,26.00
2023-02-17T16:55:37.966Z,26.90
2023-02-17T16:58:14.650Z,27.50
2023-02-17T17:00:53.597Z,24.30
2023-02-17T17:03:22.524Z,17.60
2023-02-17T17:05:53.552Z,25.00
2023-02-17T17:08:22.511Z,19.50
2023-02-17T17:10:52.629Z,22.10
2023-02-17T17:13:21.353Z,18.50
2023-02-17T17:15:51.662Z,17.90
2023-02-17T17:18:23.587Z,20.80
2023-02-17T17:20:52.405Z,19.80
2023-02-17T17:23:23.480Z,21.40
2023-02-17T17:25:52.440Z,16.30
2023-02-17T17:28:21.611Z,21.40
2023-02-17T17:30:52.182Z,18.60
2023-02-17T17:33:24.145Z,17.00
2023-02-17T17:35:55.734Z,20.10
2023-02-17T17:38:24.438Z,20.00
2023-02-17T17:40:56.306Z,18.90
2023-02-17T17:43:25.219Z,19.10
2023-02-17T17:45:57.671Z,17.90
2023-02-17T17:48:26.949Z,17.30
2023-02-17T17:50:58.402Z,15.80
2023-02-17T17:53:27.922Z,17.30
2023-02-17T17:56:14.270Z,16.10
2023-02-17T17:58:43.649Z,17.50
2023-02-17T18:01:12.614Z,11.90
2023-02-17T18:03:49.845Z,12.30
2023-02-17T18:06:33.864Z,22.10
2023-02-17T18:09:10.835Z,13.60
2023-02-17T18:11:42.308Z,14.70
2023-02-17T18:14:14.225Z,14.00
2023-02-17T18:16:46.456Z,13.10
2023-02-17T18:21:53.698Z,17.30
2023-02-17T18:24:22.696Z,13.50
2023-02-17T18:26:52.750Z,12.80
2023-02-17T18:29:21.749Z,12.90
2023-02-17T18:31:53.779Z,13.80
2023-02-17T18:34:26.176Z,15.60
2023-02-17T18:36:57.761Z,10.20
2023-02-17T18:39:27.235Z,13.50
2023-02-17T18:41:58.631Z,13.60
2023-02-17T18:44:27.527Z,12.70
2023-02-17T18:46:56.768Z,13.30
2023-02-17T18:49:26.110Z,13.50
2023-02-17T18:51:55.121Z,13.20
2023-02-17T18:54:24.731Z,19.20
2023-02-17T18:56:53.923Z,34.30
2023-02-17T18:59:29.788Z,13.30
2023-02-17T19:02:00.460Z,18.10
2023-02-17T19:04:34.783Z,12.80
2023-02-17T19:07:06.312Z,15.60
2023-02-17T19:09:41.581Z,15.90
2023-02-17T19:12:13.247Z,13.70
2023-02-17T19:14:42.862Z,16.50
2023-02-17T19:17:12.648Z,13.40
2023-02-17T19:19:42.250Z,11.90
2023-02-17T19:22:10.972Z,14.30
2023-02-17T19:24:41.203Z,14.30
2023-02-17T19:27:10.282Z,16.50
2023-02-17T19:29:40.324Z,17.20
2023-02-17T19:32:09.447Z,17.90
2023-02-17T19:34:39.597Z,15.80
2023-02-17T19:37:08.962Z,16.80
2023-02-17T19:39:38.238Z,18.50
2023-02-17T19:42:07.706Z,17.10
2023-02-17T19:44:36.530Z,17.70
2023-02-17T19:47:07.694Z,19.60
2023-02-17T19:49:36.683Z,18.90
2023-02-17T19:52:06.911Z,16.80
2023-02-17T19:54:39.855Z,17.20
2023-02-17T19:57:09.156Z,19.20
2023-02-17T19:59:39.731Z,17.70
2023-02-17T20:02:11.978Z,18.50
2023-02-17T20:04:41.360Z,16.40
2023-02-17T20:07:10.365Z,16.10
2023-02-17T20:09:41.806Z,17.70
2023-02-17T20:12:13.731Z,16.40
2023-02-17T20:14:45.012Z,19.10
2023-02-17T20:17:15.291Z,17.40
2023-02-17T20:19:46.538Z,18.50
2023-02-17T20:22:15.663Z,16.70
2023-02-17T20:24:46.862Z,18.60
2023-02-17T20:27:16.188Z,17.90
2023-02-17T20:29:45.435Z,15.90
2023-02-17T20:32:17.439Z,16.00
2023-02-17T20:34:55.971Z,17.10
2023-02-17T20:39:55.724Z,17.00
2023-02-17T20:42:24.823Z,17.10
2023-02-17T20:44:56.040Z,16.60
2023-02-17T20:47:27.843Z,13.90
2023-02-17T20:49:56.954Z,14.00
2023-02-17T20:52:25.966Z,17.10
2023-02-17T20:54:57.056Z,13.90
2023-02-17T20:57:27.115Z,15.10
2023-02-17T20:59:56.426Z,16.60
2023-02-17T21:02:26.634Z,12.60
2023-02-17T21:04:56.216Z,12.00
2023-02-17T21:07:25.084Z,14.10
2023-02-17T21:10:02.832Z,12.90
2023-02-17T21:12:35.883Z,15.40
2023-02-17T21:15:09.368Z,13.40
2023-02-17T21:17:38.811Z,13.10
2023-02-17T21:20:11.660Z,11.00
2023-02-17T21:22:41.796Z,11.10
2023-02-17T21:25:12.810Z,10.90
2023-02-17T21:27:44.764Z,10.90
2023-02-17T21:30:15.734Z,9.50
2023-02-17T21:32:44.662Z,11.50
2023-02-17T21:35:13.830Z,9.50
2023-02-17T21:37:45.296Z,10.40
2023-02-17T21:40:14.925Z,10.70
2023-02-17T21:43:01.091Z,9.90
2023-02-17T21:45:30.132Z,7.50
2023-02-17T21:48:00.198Z,7.90
2023-02-17T21:50:29.184Z,6.00
2023-02-17T21:52:58.105Z,7.60
2023-02-17T21:55:27.721Z,9.30
2023-02-17T21:57:56.691Z,7.30
2023-02-17T22:00:26.345Z,7.50
2023-02-17T22:02:55.403Z,8.20
2023-02-17T22:05:30.759Z,5.80
2023-02-17T22:07:59.483Z,4.70
2023-02-17T22:10:28.214Z,4.80
2023-02-17T22:12:57.476Z,4.80
2023-02-17T22:15:26.415Z,3.30
2023-02-17T22:17:55.292Z,4.00
2023-02-17T22:20:27.099Z,3.80
2023-02-17T22:22:56.766Z,4.50
2023-02-17T22:25:26.164Z,3.50
2023-02-17T22:27:54.959Z,3.00
2023-02-17T22:30:27.198Z,6.20
2023-02-17T22:32:56.952Z,5.30
2023-02-17T22:35:27.869Z,5.60
2023-02-17T22:37:58.132Z,4.20
2023-02-17T22:40:27.213Z,5.00
2023-02-17T22:42:55.860Z,4.10
2023-02-17T22:45:24.824Z,4.40
2023-02-17T22:47:53.502Z,11.10
2023-02-17T22:50:22.163Z,7.10
2023-02-17T22:52:51.571Z,5.80
2023-02-17T22:55:21.554Z,5.30
2023-02-17T22:57:52.914Z,6.40
2023-02-17T23:00:22.316Z,5.00
2023-02-17T23:02:53.885Z,4.50
2023-02-17T23:05:27.038Z,6.30
2023-02-17T23:07:58.672Z,5.90
2023-02-17T23:10:29.162Z,6.00
2023-02-17T23:12:57.733Z,6.00
2023-02-17T23:15:39.084Z,3.00
2023-02-17T23:18:11.070Z,4.30
2023-02-17T23:20:45.731Z,6.40
2023-02-17T23:23:16.114Z,3.00
2023-02-17T23:25:50.201Z,5.40
2023-02-17T23:28:20.670Z,3.70
2023-02-17T23:30:51.308Z,4.20
2023-02-17T23:33:24.250Z,2.50
2023-02-17T23:35:52.978Z,3.60
2023-02-17T23:38:22.696Z,4.90
2023-02-17T23:40:52.995Z,6.20
2023-02-17T23:43:21.845Z,2.90
2023-02-17T23:45:55.302Z,3.00
2023-02-17T23:48:24.539Z,6.90
2023-02-17T23:50:57.532Z,5.80
2023-02-17T23:53:30.266Z,2.60
2023-02-17T23:56:08.608Z,5.80
2023-02-17T23:58:39.896Z,7.50
